createdAt,value
2022-08-26T00:01:46.666Z,14.05
2022-08-26T00:04:13.689Z,14.60
2022-08-26T00:06:42.559Z,11.90
2022-08-26T00:09:16.136Z,13.85
2022-08-26T00:11:44.716Z,13.10
2022-08-26T00:14:13.834Z,11.95
2022-08-26T00:16:47.826Z,13.07
2022-08-26T00:19:16.386Z,12.55
2022-08-26T00:21:43.438Z,13.27
2022-08-26T00:24:10.324Z,13.43
2022-08-26T00:26:37.150Z,11.15
2022-08-26T00:29:03.643Z,11.63
2022-08-26T00:31:32.683Z,13.23
2022-08-26T00:33:59.396Z,11.65
2022-08-26T00:36:29.565Z,13.70
2022-08-26T00:38:57.204Z,12.52
2022-08-26T00:41:24.021Z,14.27
2022-08-26T00:43:50.928Z,11.88
2022-08-26T00:46:22.032Z,10.98
2022-08-26T00:48:53.839Z,11.95
2022-08-26T00:51:29.783Z,12.88
2022-08-26T00:54:05.457Z,11.35
2022-08-26T00:56:40.425Z,12.57
2022-08-26T00:59:12.018Z,14.80
2022-08-26T01:01:41.164Z,12.07
2022-08-26T01:04:09.553Z,12.35
2022-08-26T01:06:36.508Z,12.82
2022-08-26T01:09:03.549Z,13.70
2022-08-26T01:11:31.150Z,12.18
2022-08-26T01:14:02.733Z,10.98
2022-08-26T01:16:30.218Z,11.43
2022-08-26T01:19:03.508Z,13.88
2022-08-26T01:21:40.552Z,11.32
2022-08-26T01:24:10.309Z,13.13
2022-08-26T01:26:42.755Z,12.50
2022-08-26T01:29:14.877Z,11.57
2022-08-26T01:31:46.289Z,12.32
2022-08-26T01:34:20.426Z,9.63
2022-08-26T01:39:19.209Z,13.88
2022-08-26T01:41:47.181Z,13.05
2022-08-26T01:44:23.724Z,11.30
2022-08-26T01:46:52.804Z,12.30
2022-08-26T01:49:22.110Z,11.45
2022-08-26T01:51:53.636Z,13.20
2022-08-26T01:54:20.951Z,11.85
2022-08-26T01:56:51.022Z,11.40
2022-08-26T01:59:20.237Z,11.63
2022-08-26T02:01:48.059Z,12.82
2022-08-26T02:04:35.070Z,12.05
2022-08-26T02:07:09.618Z,14.63
2022-08-26T02:09:41.310Z,11.32
2022-08-26T02:12:10.488Z,12.65
2022-08-26T02:14:43.854Z,12.80
2022-08-26T02:17:11.278Z,10.07
2022-08-26T02:19:41.678Z,10.25
2022-08-26T02:22:13.948Z,14.23
2022-08-26T02:24:54.337Z,13.00
2022-08-26T02:27:33.577Z,12.77
2022-08-26T02:30:08.294Z,12.73
2022-08-26T02:32:34.933Z,11.38
2022-08-26T02:35:01.784Z,12.13
2022-08-26T02:37:31.354Z,12.15
2022-08-26T02:39:58.223Z,13.77
2022-08-26T02:42:24.847Z,10.68
2022-08-26T02:44:51.728Z,14.07
2022-08-26T02:47:18.234Z,10.45
2022-08-26T02:49:47.279Z,11.75
2022-08-26T02:52:14.649Z,12.43
2022-08-26T02:54:41.115Z,11.63
2022-08-26T02:57:08.140Z,13.30
2022-08-26T02:59:35.974Z,13.57
2022-08-26T03:02:03.211Z,14.57
2022-08-26T03:04:30.380Z,13.75
2022-08-26T03:06:59.900Z,13.93
2022-08-26T03:09:27.876Z,12.57
2022-08-26T03:11:55.410Z,13.07
2022-08-26T03:14:23.882Z,13.93
2022-08-26T03:16:52.282Z,14.32
2022-08-26T03:19:18.742Z,11.60
2022-08-26T03:21:47.334Z,13.27
2022-08-26T03:24:14.668Z,12.88
2022-08-26T03:26:41.178Z,14.68
2022-08-26T03:29:38.847Z,11.13
2022-08-26T03:32:06.091Z,11.38
2022-08-26T03:34:32.559Z,10.98
2022-08-26T03:36:59.074Z,11.50
2022-08-26T03:39:25.591Z,12.73
2022-08-26T03:41:52.390Z,11.45
2022-08-26T03:44:19.901Z,11.95
2022-08-26T03:46:46.564Z,11.18
2022-08-26T03:49:13.217Z,14.23
2022-08-26T03:51:41.652Z,13.95
2022-08-26T03:54:08.821Z,12.55
2022-08-26T03:56:36.510Z,10.73
2022-08-26T03:59:03.357Z,13.48
2022-08-26T04:01:30.719Z,12.57
2022-08-26T04:03:58.205Z,12.43
2022-08-26T04:06:39.379Z,10.48
2022-08-26T04:09:10.096Z,14.45
2022-08-26T04:11:39.442Z,11.40
2022-08-26T04:14:10.189Z,11.38
2022-08-26T04:16:37.127Z,11.52
2022-08-26T04:19:04.085Z,12.90
2022-08-26T04:21:31.016Z,14.18
2022-08-26T04:23:58.336Z,10.90
2022-08-26T04:26:26.006Z,14.05
2022-08-26T04:28:54.584Z,11.23
2022-08-26T04:31:22.649Z,15.05
2022-08-26T04:33:50.737Z,11.63
2022-08-26T04:36:17.709Z,13.45
2022-08-26T04:38:47.210Z,15.73
2022-08-26T04:41:15.437Z,10.38
2022-08-26T04:43:44.653Z,11.35
2022-08-26T04:46:13.731Z,14.38
2022-08-26T04:48:41.247Z,14.00
2022-08-26T04:51:09.113Z,13.30
2022-08-26T04:53:37.281Z,12.38
2022-08-26T04:56:04.699Z,13.10
2022-08-26T04:58:31.893Z,12.25
2022-08-26T05:00:58.459Z,12.88
2022-08-26T05:03:27.355Z,17.02
2022-08-26T05:05:58.218Z,18.52
2022-08-26T05:08:24.906Z,20.10
2022-08-26T05:10:56.039Z,16.20
2022-08-26T05:13:27.415Z,20.80
2022-08-26T05:15:54.633Z,17.05
2022-08-26T05:18:27.393Z,12.57
2022-08-26T05:20:54.898Z,14.52
2022-08-26T05:23:24.243Z,14.27
2022-08-26T05:25:58.408Z,13.27
2022-08-26T05:28:27.061Z,13.48
2022-08-26T05:30:54.358Z,13.20
2022-08-26T05:33:21.921Z,14.88
2022-08-26T05:35:49.002Z,12.68
2022-08-26T05:38:18.342Z,10.73
2022-08-26T05:40:49.076Z,11.55
2022-08-26T05:43:21.061Z,17.30
2022-08-26T05:45:49.886Z,11.80
2022-08-26T05:48:18.890Z,13.35
2022-08-26T05:50:53.951Z,15.27
2022-08-26T05:53:23.930Z,13.13
2022-08-26T05:55:54.404Z,14.35
2022-08-26T05:58:23.328Z,11.90
2022-08-26T06:01:20.315Z,14.38
2022-08-26T06:03:51.598Z,11.57
2022-08-26T06:06:27.812Z,15.02
2022-08-26T06:08:57.834Z,12.20
2022-08-26T06:11:26.050Z,13.13
2022-08-26T06:13:54.441Z,13.07
2022-08-26T06:16:24.074Z,12.65
2022-08-26T06:18:52.592Z,14.05
2022-08-26T06:21:26.524Z,11.85
2022-08-26T06:24:15.149Z,12.57
2022-08-26T06:26:46.825Z,13.00
2022-08-26T06:29:24.717Z,11.93
2022-08-26T06:31:56.271Z,11.88
2022-08-26T06:34:29.656Z,13.43
2022-08-26T06:36:58.493Z,10.63
2022-08-26T06:39:25.111Z,17.83
2022-08-26T06:41:51.998Z,12.38
2022-08-26T06:44:19.382Z,13.95
2022-08-26T06:46:46.330Z,11.57
2022-08-26T06:49:17.662Z,14.85
2022-08-26T06:51:44.560Z,12.77
2022-08-26T06:54:11.391Z,15.13
2022-08-26T06:56:42.980Z,13.63
2022-08-26T06:59:11.653Z,14.60
2022-08-26T07:01:44.525Z,14.10
2022-08-26T07:04:15.551Z,12.48
2022-08-26T07:06:48.704Z,15.27
2022-08-26T07:09:16.827Z,17.20
2022-08-26T07:11:44.477Z,16.63
2022-08-26T07:14:12.083Z,13.05
2022-08-26T07:16:39.936Z,13.65
2022-08-26T07:19:10.654Z,14.90
2022-08-26T07:21:40.202Z,15.68
2022-08-26T07:24:07.198Z,13.13
2022-08-26T07:26:33.672Z,14.35
2022-08-26T07:29:01.701Z,15.88
2022-08-26T07:31:36.009Z,14.30
2022-08-26T07:34:09.277Z,16.83
2022-08-26T07:36:36.437Z,16.85
2022-08-26T07:39:03.092Z,11.88
2022-08-26T07:44:00.949Z,13.20
2022-08-26T07:46:30.426Z,16.75
2022-08-26T07:48:57.970Z,16.15
2022-08-26T07:51:25.471Z,17.70
2022-08-26T07:53:52.901Z,13.55
2022-08-26T07:56:21.691Z,16.02
2022-08-26T07:58:51.698Z,16.83
2022-08-26T08:01:24.319Z,16.55
2022-08-26T08:03:53.821Z,15.77
2022-08-26T08:06:23.065Z,15.65
2022-08-26T08:08:54.327Z,15.18
2022-08-26T08:11:21.413Z,17.00
2022-08-26T08:13:50.064Z,21.75
2022-08-26T08:16:24.593Z,15.30
2022-08-26T08:18:51.428Z,17.23
2022-08-26T08:21:22.225Z,17.90
2022-08-26T08:23:55.402Z,17.25
2022-08-26T08:26:22.999Z,17.23
2022-08-26T08:28:49.964Z,15.50
2022-08-26T08:31:55.884Z,12.68
2022-08-26T08:34:15.851Z,16.40
2022-08-26T08:36:46.195Z,16.67
2022-08-26T08:39:13.604Z,13.80
2022-08-26T08:41:59.630Z,14.48
2022-08-26T08:47:06.135Z,18.65
2022-08-26T08:49:34.341Z,15.23
2022-08-26T08:52:36.720Z,16.67
2022-08-26T08:55:06.127Z,15.85
2022-08-26T08:58:01.988Z,14.30
2022-08-26T09:00:46.460Z,14.13
2022-08-26T09:03:30.982Z,15.15
2022-08-26T09:06:00.220Z,20.00
2022-08-26T09:08:35.049Z,19.45
2022-08-26T09:11:03.578Z,16.60
2022-08-26T09:13:31.570Z,21.52
2022-08-26T09:16:04.197Z,15.20
2022-08-26T09:19:03.971Z,20.27
2022-08-26T09:21:31.596Z,19.88
2022-08-26T09:23:58.646Z,17.95
2022-08-26T09:26:30.873Z,18.23
2022-08-26T09:29:03.216Z,19.75
2022-08-26T09:31:32.649Z,19.52
2022-08-26T09:34:12.060Z,22.35
2022-08-26T09:36:53.652Z,20.00
2022-08-26T09:39:23.928Z,20.08
2022-08-26T09:42:02.761Z,16.80
2022-08-26T09:44:29.304Z,25.52
2022-08-26T09:46:59.973Z,22.77
2022-08-26T09:49:35.613Z,20.33
2022-08-26T09:52:04.762Z,21.13
2022-08-26T09:54:33.510Z,19.30
2022-08-26T09:57:16.134Z,26.55
2022-08-26T09:59:43.107Z,21.50
2022-08-26T10:02:28.860Z,26.00
2022-08-26T10:04:57.661Z,30.60
2022-08-26T10:07:40.317Z,24.50
2022-08-26T10:10:12.510Z,23.70
2022-08-26T10:12:58.595Z,20.75
2022-08-26T10:15:27.817Z,20.63
2022-08-26T10:18:02.973Z,21.67
2022-08-26T10:20:37.234Z,22.00
2022-08-26T10:23:18.539Z,19.58
2022-08-26T10:25:51.217Z,22.63
2022-08-26T10:28:21.568Z,23.50
2022-08-26T10:30:59.458Z,20.77
2022-08-26T10:33:26.038Z,20.50
2022-08-26T10:35:57.504Z,20.38
2022-08-26T10:38:34.208Z,26.55
2022-08-26T10:41:20.433Z,16.75
2022-08-26T10:43:59.842Z,23.02
2022-08-26T10:46:36.867Z,18.98
2022-08-26T10:49:08.624Z,20.90
2022-08-26T10:51:42.122Z,24.23
2022-08-26T10:54:16.340Z,24.58
2022-08-26T10:57:09.824Z,25.48
2022-08-26T10:59:50.714Z,23.65
2022-08-26T11:02:38.403Z,21.38
2022-08-26T11:05:15.352Z,27.55
2022-08-26T11:07:45.980Z,20.67
2022-08-26T11:10:18.414Z,22.42
2022-08-26T11:12:45.353Z,19.77
2022-08-26T11:15:24.725Z,25.02
2022-08-26T11:17:51.316Z,23.05
2022-08-26T11:20:29.930Z,20.35
2022-08-26T11:23:28.138Z,22.90
2022-08-26T11:26:10.067Z,21.15
2022-08-26T11:28:49.573Z,24.17
2022-08-26T11:31:19.201Z,24.35
2022-08-26T11:33:59.884Z,28.40
2022-08-26T11:36:41.686Z,21.25
2022-08-26T11:39:36.904Z,21.10
2022-08-26T11:42:37.325Z,21.40
2022-08-26T11:45:17.613Z,19.05
2022-08-26T11:47:44.666Z,19.30
2022-08-26T11:50:19.782Z,17.25
2022-08-26T11:53:01.583Z,21.83
2022-08-26T11:55:33.433Z,24.20
2022-08-26T11:58:04.810Z,18.52
2022-08-26T12:00:58.447Z,20.38
2022-08-26T12:03:38.937Z,28.30
2022-08-26T12:06:15.032Z,23.38
2022-08-26T12:08:44.351Z,25.52
2022-08-26T12:11:33.275Z,27.75
2022-08-26T12:14:03.835Z,27.67
2022-08-26T12:19:25.229Z,26.90
2022-08-26T12:22:03.457Z,23.25
2022-08-26T12:24:30.328Z,19.98
2022-08-26T12:27:30.802Z,18.00
2022-08-26T12:30:12.403Z,22.52
2022-08-26T12:32:55.145Z,20.42
2022-08-26T12:37:53.778Z,18.45
2022-08-26T12:40:46.546Z,25.70
2022-08-26T12:43:34.273Z,21.67
2022-08-26T12:46:00.937Z,19.45
2022-08-26T12:48:32.106Z,17.15
2022-08-26T12:50:59.817Z,20.35
2022-08-26T12:53:30.262Z,18.85
2022-08-26T12:56:04.555Z,24.60
2022-08-26T12:58:32.375Z,21.85
2022-08-26T13:01:22.222Z,22.17
2022-08-26T13:03:49.410Z,21.08
2022-08-26T13:06:29.425Z,19.42
2022-08-26T13:09:10.051Z,17.38
2022-08-26T13:11:39.430Z,19.80
2022-08-26T13:14:12.549Z,16.50
2022-08-26T13:16:48.233Z,17.40
2022-08-26T13:19:29.464Z,21.55
2022-08-26T13:21:58.354Z,20.60
2022-08-26T13:24:38.661Z,23.77
2022-08-26T13:27:08.080Z,18.77
2022-08-26T13:29:35.195Z,19.58
2022-08-26T13:32:03.105Z,20.38
2022-08-26T13:34:30.006Z,16.77
2022-08-26T13:36:58.298Z,26.48
2022-08-26T13:39:25.967Z,18.27
2022-08-26T13:41:53.183Z,18.27
2022-08-26T13:44:20.065Z,19.98
2022-08-26T13:46:46.549Z,20.83
2022-08-26T13:49:13.291Z,16.85
2022-08-26T13:51:40.691Z,14.95
2022-08-26T13:54:07.681Z,18.77
2022-08-26T13:56:35.438Z,13.75
2022-08-26T13:59:02.934Z,16.77
2022-08-26T14:01:31.279Z,20.30
2022-08-26T14:03:58.627Z,20.05
2022-08-26T14:06:25.324Z,21.83
2022-08-26T14:08:51.955Z,19.60
2022-08-26T14:11:18.594Z,19.63
2022-08-26T14:13:45.068Z,17.25
2022-08-26T14:16:19.495Z,19.00
2022-08-26T14:18:50.522Z,18.25
2022-08-26T14:21:17.363Z,17.98
2022-08-26T14:23:43.859Z,19.90
2022-08-26T14:26:11.956Z,15.73
2022-08-26T14:28:54.615Z,16.98
2022-08-26T14:31:23.368Z,28.23
2022-08-26T14:33:49.987Z,16.80
2022-08-26T14:36:28.219Z,22.65
2022-08-26T14:38:58.011Z,19.20
2022-08-26T14:41:25.288Z,19.45
2022-08-26T14:43:57.976Z,20.98
2022-08-26T14:46:28.659Z,19.65
2022-08-26T14:49:01.744Z,24.75
2022-08-26T14:51:29.577Z,18.88
2022-08-26T14:54:14.154Z,18.42
2022-08-26T14:56:46.364Z,16.15
2022-08-26T14:59:14.633Z,17.55
2022-08-26T15:01:41.189Z,23.42
2022-08-26T15:04:07.740Z,18.67
2022-08-26T15:06:35.260Z,22.90
2022-08-26T15:09:02.212Z,19.65
2022-08-26T15:11:29.157Z,23.73
2022-08-26T15:13:55.774Z,22.35
2022-08-26T15:16:22.736Z,25.25
2022-08-26T15:18:51.207Z,17.55
2022-08-26T15:21:19.353Z,19.60
2022-08-26T15:23:47.782Z,16.17
2022-08-26T15:26:15.548Z,16.25
2022-08-26T15:28:42.008Z,14.85
2022-08-26T15:31:08.767Z,18.73
2022-08-26T15:33:36.432Z,14.50
2022-08-26T15:36:04.294Z,13.75
2022-08-26T15:38:32.495Z,19.02
2022-08-26T15:41:02.917Z,13.15
2022-08-26T15:43:29.733Z,15.13
2022-08-26T15:45:57.716Z,14.32
2022-08-26T15:48:24.986Z,17.00
2022-08-26T15:51:00.461Z,12.93
2022-08-26T15:53:30.119Z,14.02
2022-08-26T15:55:58.172Z,12.50
2022-08-26T15:58:27.131Z,14.38
2022-08-26T16:00:54.949Z,14.18
2022-08-26T16:03:21.779Z,14.80
2022-08-26T16:05:48.427Z,15.13
2022-08-26T16:08:15.424Z,13.50
2022-08-26T16:10:49.797Z,17.67
2022-08-26T16:13:19.809Z,17.90
2022-08-26T16:15:48.089Z,15.23
2022-08-26T16:18:15.492Z,14.27
2022-08-26T16:21:12.879Z,16.70
2022-08-26T16:23:37.440Z,13.02
2022-08-26T16:26:12.076Z,12.57
2022-08-26T16:28:39.922Z,14.85
2022-08-26T16:31:07.121Z,14.00
2022-08-26T16:33:33.564Z,13.25
2022-08-26T16:36:00.006Z,12.88
2022-08-26T16:38:26.588Z,13.50
2022-08-26T16:40:53.021Z,10.90
2022-08-26T16:43:19.699Z,14.05
2022-08-26T16:45:46.166Z,12.75
2022-08-26T16:48:12.655Z,10.30
2022-08-26T16:50:40.685Z,9.63
2022-08-26T16:53:07.709Z,10.23
2022-08-26T16:55:34.784Z,9.77
2022-08-26T16:58:01.448Z,11.38
2022-08-26T17:00:31.137Z,12.10
2022-08-26T17:03:00.234Z,18.55
2022-08-26T17:05:28.036Z,8.70
2022-08-26T17:07:56.556Z,9.32
2022-08-26T17:10:24.561Z,7.88
2022-08-26T17:12:51.776Z,9.10
2022-08-26T17:15:19.022Z,8.18
2022-08-26T17:17:45.495Z,10.18
2022-08-26T17:20:15.613Z,8.55
2022-08-26T17:22:45.639Z,8.75
2022-08-26T17:25:15.560Z,9.48
2022-08-26T17:27:42.950Z,8.18
2022-08-26T17:30:10.090Z,7.15
2022-08-26T17:32:36.803Z,9.18
2022-08-26T17:35:04.736Z,8.13
2022-08-26T17:37:31.294Z,10.63
2022-08-26T17:39:58.381Z,10.10
2022-08-26T17:42:31.373Z,10.00
2022-08-26T17:44:58.389Z,9.38
2022-08-26T17:47:25.003Z,8.63
2022-08-26T17:49:51.661Z,10.90
2022-08-26T17:52:18.165Z,9.27
2022-08-26T17:54:44.846Z,9.25
2022-08-26T17:57:11.361Z,8.40
2022-08-26T17:59:38.585Z,9.13
2022-08-26T18:02:07.485Z,9.95
2022-08-26T18:04:34.237Z,7.50
2022-08-26T18:07:01.248Z,9.93
2022-08-26T18:09:31.146Z,8.77
2022-08-26T18:11:58.444Z,9.43
2022-08-26T18:14:25.212Z,9.07
2022-08-26T18:16:52.105Z,10.00
2022-08-26T18:19:18.790Z,8.77
2022-08-26T18:21:45.309Z,9.57
2022-08-26T18:24:13.995Z,8.73
2022-08-26T18:26:44.473Z,7.55
2022-08-26T18:29:11.168Z,7.57
2022-08-26T18:31:37.604Z,9.68
2022-08-26T18:34:04.184Z,6.93
2022-08-26T18:36:34.118Z,8.80
2022-08-26T18:39:00.984Z,8.63
2022-08-26T18:41:30.359Z,8.07
2022-08-26T18:43:57.868Z,8.60
2022-08-26T18:46:26.484Z,8.13
2022-08-26T18:48:56.141Z,8.93
2022-08-26T18:51:26.020Z,7.88
2022-08-26T18:53:53.325Z,9.32
2022-08-26T18:56:19.872Z,9.38
2022-08-26T18:58:46.512Z,9.10
2022-08-26T19:01:13.711Z,9.98
2022-08-26T19:03:40.576Z,9.48
2022-08-26T19:06:07.311Z,8.38
2022-08-26T19:08:33.763Z,6.88
2022-08-26T19:11:00.690Z,7.80
2022-08-26T19:13:27.138Z,10.63
2022-08-26T19:15:53.636Z,12.30
2022-08-26T19:18:20.075Z,7.07
2022-08-26T19:20:47.816Z,7.82
2022-08-26T19:23:31.037Z,7.88
2022-08-26T19:25:58.538Z,10.13
2022-08-26T19:28:24.946Z,9.80
2022-08-26T19:30:53.378Z,9.02
2022-08-26T19:33:20.115Z,9.80
2022-08-26T19:35:46.639Z,10.07
2022-08-26T19:38:13.625Z,9.45
2022-08-26T19:40:40.367Z,10.95
2022-08-26T19:43:07.120Z,8.32
2022-08-26T19:45:34.582Z,9.15
2022-08-26T19:48:01.146Z,9.30
2022-08-26T19:50:31.062Z,8.32
2022-08-26T19:52:58.498Z,7.03
2022-08-26T19:55:26.129Z,9.60
2022-08-26T19:57:53.706Z,11.30
2022-08-26T20:00:23.760Z,10.07
2022-08-26T20:02:51.750Z,8.68
2022-08-26T20:05:20.907Z,9.88
2022-08-26T20:07:47.897Z,9.30
2022-08-26T20:10:16.556Z,11.68
2022-08-26T20:12:43.588Z,8.80
2022-08-26T20:15:12.002Z,8.90
2022-08-26T20:17:39.374Z,9.25
2022-08-26T20:20:33.193Z,9.30
2022-08-26T20:23:01.297Z,8.45
2022-08-26T20:25:28.305Z,11.65
2022-08-26T20:27:54.737Z,8.88
2022-08-26T20:30:21.365Z,8.75
2022-08-26T20:32:48.376Z,8.90
2022-08-26T20:35:14.928Z,8.80
2022-08-26T20:37:42.364Z,10.27
2022-08-26T20:40:12.464Z,9.60
2022-08-26T20:42:39.031Z,8.25
2022-08-26T20:45:07.231Z,10.23
2022-08-26T20:47:34.390Z,10.07
2022-08-26T20:50:02.331Z,11.48
2022-08-26T20:52:28.855Z,13.32
2022-08-26T20:54:55.510Z,10.95
2022-08-26T20:57:22.243Z,11.63
2022-08-26T20:59:49.029Z,9.32
2022-08-26T21:02:15.970Z,10.77
2022-08-26T21:04:42.515Z,9.63
2022-08-26T21:07:09.001Z,12.18
2022-08-26T21:09:35.503Z,11.50
2022-08-26T21:12:02.322Z,11.40
2022-08-26T21:14:28.839Z,10.38
2022-08-26T21:16:56.460Z,10.35
2022-08-26T21:19:23.128Z,12.95
2022-08-26T21:21:50.242Z,13.45
2022-08-26T21:24:17.363Z,13.15
2022-08-26T21:26:43.964Z,11.52
2022-08-26T21:29:10.593Z,11.82
2022-08-26T21:31:40.975Z,12.52
2022-08-26T21:34:11.560Z,13.07
2022-08-26T21:36:37.988Z,12.35
2022-08-26T21:39:09.284Z,13.35
2022-08-26T21:41:38.084Z,11.50
2022-08-26T21:44:04.542Z,13.32
2022-08-26T21:46:31.022Z,13.38
2022-08-26T21:49:00.145Z,11.55
2022-08-26T21:51:29.489Z,13.65
2022-08-26T21:53:57.906Z,13.50
2022-08-26T21:56:27.443Z,15.15
2022-08-26T21:58:55.669Z,13.13
2022-08-26T22:01:25.195Z,16.15
2022-08-26T22:03:52.592Z,16.08
2022-08-26T22:06:21.716Z,17.33
2022-08-26T22:08:48.977Z,13.07
2022-08-26T22:11:15.705Z,12.50
2022-08-26T22:13:43.365Z,14.48
2022-08-26T22:16:11.378Z,14.07
2022-08-26T22:18:38.889Z,12.65
2022-08-26T22:21:08.802Z,13.48
2022-08-26T22:23:37.366Z,12.90
2022-08-26T22:26:06.749Z,12.38
2022-08-26T22:28:34.412Z,16.23
2022-08-26T22:31:01.855Z,16.70
2022-08-26T22:33:28.934Z,14.90
2022-08-26T22:35:55.899Z,13.93
2022-08-26T22:38:23.746Z,13.48
2022-08-26T22:40:55.940Z,15.88
2022-08-26T22:43:28.677Z,17.20
2022-08-26T22:45:57.157Z,10.82
2022-08-26T22:48:26.391Z,12.75
2022-08-26T22:50:59.608Z,14.27
2022-08-26T22:53:26.925Z,12.93
2022-08-26T22:55:54.292Z,13.57
2022-08-26T22:58:21.419Z,13.73
2022-08-26T23:00:57.625Z,14.27
2022-08-26T23:03:26.411Z,13.88
2022-08-26T23:05:53.000Z,13.75
2022-08-26T23:08:20.090Z,14.25
2022-08-26T23:10:47.705Z,17.95
2022-08-26T23:13:15.281Z,15.88
2022-08-26T23:15:42.689Z,15.75
2022-08-26T23:18:10.186Z,19.67
2022-08-26T23:20:37.717Z,19.27
2022-08-26T23:23:04.866Z,19.50
2022-08-26T23:25:32.418Z,19.48
2022-08-26T23:28:00.757Z,20.05
2022-08-26T23:30:29.619Z,23.27
2022-08-26T23:32:56.118Z,20.30
2022-08-26T23:35:22.608Z,18.17
2022-08-26T23:37:52.402Z,22.30
2022-08-26T23:40:29.529Z,21.33
2022-08-26T23:42:57.780Z,21.92
2022-08-26T23:45:25.837Z,20.85
2022-08-26T23:47:53.386Z,22.33
2022-08-26T23:50:48.219Z,20.92
2022-08-26T23:53:20.766Z,21.35
2022-08-26T23:55:51.968Z,24.65
2022-08-26T23:58:20.434Z,28.10
